sensor_id;sensor_type;location;lat;lon;timestamp;P1;durP1;ratioP1;P2;durP2;ratioP2
17384;SDS011;8810;48.680;8.894;2022-10-16T00:02:20;4.20;;;1.77;;
17384;SDS011;8810;48.680;8.894;2022-10-16T00:04:47;4.33;;;1.50;;
17384;SDS011;8810;48.680;8.894;2022-10-16T00:07:14;8.53;;;3.50;;
17384;SDS011;8810;48.680;8.894;2022-10-16T00:09:41;7.33;;;3.30;;
17384;SDS011;8810;48.680;8.894;2022-10-16T00:12:08;4.97;;;2.70;;
17384;SDS011;8810;48.680;8.894;2022-10-16T00:14:36;5.83;;;2.50;;
17384;SDS011;8810;48.680;8.894;2022-10-16T00:17:05;4.73;;;2.20;;
17384;SDS011;8810;48.680;8.894;2022-10-16T00:19:32;5.80;;;2.23;;
17384;SDS011;8810;48.680;8.894;2022-10-16T00:21:59;5.47;;;2.50;;
17384;SDS011;8810;48.680;8.894;2022-10-16T00:24:26;3.73;;;2.20;;
17384;SDS011;8810;48.680;8.894;2022-10-16T00:26:53;5.53;;;2.17;;
17384;SDS011;8810;48.680;8.894;2022-10-16T00:29:19;4.30;;;2.03;;
17384;SDS011;8810;48.680;8.894;2022-10-16T00:31:48;4.73;;;1.77;;
17384;SDS011;8810;48.680;8.894;2022-10-16T00:34:14;2.33;;;1.57;;
17384;SDS011;8810;48.680;8.894;2022-10-16T00:36:41;3.57;;;1.90;;
17384;SDS011;8810;48.680;8.894;2022-10-16T00:39:08;3.90;;;1.97;;
17384;SDS011;8810;48.680;8.894;2022-10-16T00:41:35;3.97;;;1.57;;
17384;SDS011;8810;48.680;8.894;2022-10-16T00:44:03;4.43;;;1.47;;
17384;SDS011;8810;48.680;8.894;2022-10-16T00:46:51;3.63;;;1.50;;
17384;SDS011;8810;48.680;8.894;2022-10-16T00:49:18;3.03;;;1.50;;
17384;SDS011;8810;48.680;8.894;2022-10-16T00:51:47;3.47;;;1.80;;
17384;SDS011;8810;48.680;8.894;2022-10-16T00:54:17;4.47;;;1.50;;
17384;SDS011;8810;48.680;8.894;2022-10-16T00:56:46;1.37;;;1.27;;
17384;SDS011;8810;48.680;8.894;2022-10-16T00:59:15;2.87;;;1.50;;
17384;SDS011;8810;48.680;8.894;2022-10-16T01:01:43;5.07;;;1.70;;
17384;SDS011;8810;48.680;8.894;2022-10-16T01:04:11;3.23;;;1.50;;
17384;SDS011;8810;48.680;8.894;2022-10-16T01:06:39;3.57;;;1.37;;
17384;SDS011;8810;48.680;8.894;2022-10-16T01:09:14;2.67;;;1.60;;
17384;SDS011;8810;48.680;8.894;2022-10-16T01:11:49;2.53;;;1.53;;
17384;SDS011;8810;48.680;8.894;2022-10-16T01:14:26;2.67;;;1.43;;
17384;SDS011;8810;48.680;8.894;2022-10-16T01:16:58;4.50;;;1.60;;
17384;SDS011;8810;48.680;8.894;2022-10-16T01:19:35;3.37;;;1.70;;
17384;SDS011;8810;48.680;8.894;2022-10-16T01:22:10;2.07;;;1.50;;
17384;SDS011;8810;48.680;8.894;2022-10-16T01:24:38;6.23;;;1.63;;
17384;SDS011;8810;48.680;8.894;2022-10-16T01:27:09;3.43;;;1.43;;
17384;SDS011;8810;48.680;8.894;2022-10-16T01:29:38;3.27;;;1.47;;
17384;SDS011;8810;48.680;8.894;2022-10-16T01:32:17;1.83;;;1.50;;
17384;SDS011;8810;48.680;8.894;2022-10-16T01:34:54;3.83;;;1.53;;
17384;SDS011;8810;48.680;8.894;2022-10-16T01:37:28;2.03;;;1.30;;
17384;SDS011;8810;48.680;8.894;2022-10-16T01:39:59;3.67;;;1.50;;
17384;SDS011;8810;48.680;8.894;2022-10-16T01:42:34;4.40;;;1.50;;
17384;SDS011;8810;48.680;8.894;2022-10-16T01:45:03;1.97;;;1.37;;
17384;SDS011;8810;48.680;8.894;2022-10-16T01:47:33;1.30;;;1.20;;
17384;SDS011;8810;48.680;8.894;2022-10-16T01:50:03;2.33;;;1.40;;
17384;SDS011;8810;48.680;8.894;2022-10-16T01:52:32;3.57;;;1.60;;
17384;SDS011;8810;48.680;8.894;2022-10-16T01:55:02;3.00;;;1.77;;
17384;SDS011;8810;48.680;8.894;2022-10-16T01:57:33;3.23;;;1.43;;
17384;SDS011;8810;48.680;8.894;2022-10-16T02:00:04;3.03;;;1.23;;
17384;SDS011;8810;48.680;8.894;2022-10-16T02:02:35;5.50;;;1.30;;
17384;SDS011;8810;48.680;8.894;2022-10-16T02:05:04;3.10;;;1.30;;
17384;SDS011;8810;48.680;8.894;2022-10-16T02:07:37;5.53;;;1.40;;
17384;SDS011;8810;48.680;8.894;2022-10-16T02:10:04;4.63;;;1.50;;
17384;SDS011;8810;48.680;8.894;2022-10-16T02:12:33;4.07;;;1.30;;
17384;SDS011;8810;48.680;8.894;2022-10-16T02:15:04;2.67;;;1.30;;
17384;SDS011;8810;48.680;8.894;2022-10-16T02:17:32;5.90;;;1.67;;
17384;SDS011;8810;48.680;8.894;2022-10-16T02:19:59;2.20;;;1.30;;
17384;SDS011;8810;48.680;8.894;2022-10-16T02:22:27;2.57;;;1.40;;
17384;SDS011;8810;48.680;8.894;2022-10-16T02:24:58;3.53;;;1.40;;
17384;SDS011;8810;48.680;8.894;2022-10-16T02:27:30;3.83;;;1.40;;
17384;SDS011;8810;48.680;8.894;2022-10-16T02:30:05;3.73;;;1.30;;
17384;SDS011;8810;48.680;8.894;2022-10-16T02:32:35;2.53;;;1.50;;
17384;SDS011;8810;48.680;8.894;2022-10-16T02:35:05;1.70;;;1.30;;
17384;SDS011;8810;48.680;8.894;2022-10-16T02:37:34;1.43;;;1.23;;
17384;SDS011;8810;48.680;8.894;2022-10-16T02:40:02;3.27;;;1.40;;
17384;SDS011;8810;48.680;8.894;2022-10-16T02:42:33;2.50;;;1.37;;
17384;SDS011;8810;48.680;8.894;2022-10-16T02:45:03;1.57;;;1.20;;
17384;SDS011;8810;48.680;8.894;2022-10-16T02:47:30;3.47;;;1.33;;
17384;SDS011;8810;48.680;8.894;2022-10-16T02:49:57;1.97;;;1.10;;
17384;SDS011;8810;48.680;8.894;2022-10-16T02:52:23;2.47;;;1.47;;
17384;SDS011;8810;48.680;8.894;2022-10-16T02:54:50;4.83;;;1.27;;
17384;SDS011;8810;48.680;8.894;2022-10-16T02:57:17;2.23;;;1.17;;
17384;SDS011;8810;48.680;8.894;2022-10-16T02:59:46;4.23;;;1.53;;
17384;SDS011;8810;48.680;8.894;2022-10-16T03:02:12;2.20;;;1.40;;
17384;SDS011;8810;48.680;8.894;2022-10-16T03:04:39;7.83;;;1.70;;
17384;SDS011;8810;48.680;8.894;2022-10-16T03:07:06;2.83;;;1.37;;
17384;SDS011;8810;48.680;8.894;2022-10-16T03:09:33;1.77;;;1.30;;
17384;SDS011;8810;48.680;8.894;2022-10-16T03:12:00;4.03;;;1.40;;
17384;SDS011;8810;48.680;8.894;2022-10-16T03:14:27;4.00;;;1.40;;
17384;SDS011;8810;48.680;8.894;2022-10-16T03:16:55;3.00;;;1.40;;
17384;SDS011;8810;48.680;8.894;2022-10-16T03:19:22;3.50;;;1.70;;
17384;SDS011;8810;48.680;8.894;2022-10-16T03:21:49;3.10;;;1.47;;
17384;SDS011;8810;48.680;8.894;2022-10-16T03:24:15;1.43;;;1.33;;
17384;SDS011;8810;48.680;8.894;2022-10-16T03:26:42;4.33;;;1.30;;
17384;SDS011;8810;48.680;8.894;2022-10-16T03:29:09;1.87;;;1.33;;
17384;SDS011;8810;48.680;8.894;2022-10-16T03:31:36;2.07;;;1.33;;
17384;SDS011;8810;48.680;8.894;2022-10-16T03:34:04;2.77;;;1.60;;
17384;SDS011;8810;48.680;8.894;2022-10-16T03:36:31;2.23;;;1.33;;
17384;SDS011;8810;48.680;8.894;2022-10-16T03:38:58;4.23;;;1.67;;
17384;SDS011;8810;48.680;8.894;2022-10-16T03:41:24;3.70;;;1.63;;
17384;SDS011;8810;48.680;8.894;2022-10-16T03:43:51;4.17;;;1.90;;
17384;SDS011;8810;48.680;8.894;2022-10-16T03:46:18;4.27;;;1.50;;
17384;SDS011;8810;48.680;8.894;2022-10-16T03:48:45;2.57;;;1.80;;
17384;SDS011;8810;48.680;8.894;2022-10-16T03:51:13;4.40;;;1.63;;
17384;SDS011;8810;48.680;8.894;2022-10-16T03:53:40;4.03;;;1.83;;
17384;SDS011;8810;48.680;8.894;2022-10-16T03:56:07;2.37;;;1.50;;
17384;SDS011;8810;48.680;8.894;2022-10-16T03:58:33;1.70;;;1.57;;
17384;SDS011;8810;48.680;8.894;2022-10-16T04:01:00;2.20;;;1.70;;
17384;SDS011;8810;48.680;8.894;2022-10-16T04:03:27;4.10;;;1.60;;
17384;SDS011;8810;48.680;8.894;2022-10-16T04:05:54;2.47;;;1.70;;
17384;SDS011;8810;48.680;8.894;2022-10-16T04:08:23;6.27;;;1.60;;
17384;SDS011;8810;48.680;8.894;2022-10-16T04:10:49;2.27;;;1.60;;
17384;SDS011;8810;48.680;8.894;2022-10-16T04:13:16;8.00;;;2.00;;
17384;SDS011;8810;48.680;8.894;2022-10-16T04:15:44;2.90;;;1.93;;
17384;SDS011;8810;48.680;8.894;2022-10-16T04:18:11;3.03;;;1.70;;
17384;SDS011;8810;48.680;8.894;2022-10-16T04:20:38;3.47;;;1.90;;
17384;SDS011;8810;48.680;8.894;2022-10-16T04:23:05;4.07;;;2.07;;
17384;SDS011;8810;48.680;8.894;2022-10-16T04:25:33;2.60;;;1.70;;
17384;SDS011;8810;48.680;8.894;2022-10-16T04:28:00;2.23;;;1.60;;
17384;SDS011;8810;48.680;8.894;2022-10-16T04:30:27;6.03;;;1.70;;
17384;SDS011;8810;48.680;8.894;2022-10-16T04:32:54;2.30;;;1.30;;
17384;SDS011;8810;48.680;8.894;2022-10-16T04:35:21;5.03;;;1.87;;
17384;SDS011;8810;48.680;8.894;2022-10-16T04:37:48;5.60;;;1.70;;
17384;SDS011;8810;48.680;8.894;2022-10-16T04:40:15;4.00;;;1.90;;
17384;SDS011;8810;48.680;8.894;2022-10-16T04:42:44;3.00;;;2.10;;
17384;SDS011;8810;48.680;8.894;2022-10-16T04:45:11;5.10;;;2.43;;
17384;SDS011;8810;48.680;8.894;2022-10-16T04:47:37;5.10;;;2.07;;
17384;SDS011;8810;48.680;8.894;2022-10-16T04:50:05;4.93;;;1.83;;
17384;SDS011;8810;48.680;8.894;2022-10-16T04:52:32;4.33;;;1.43;;
17384;SDS011;8810;48.680;8.894;2022-10-16T04:54:59;2.77;;;1.73;;
17384;SDS011;8810;48.680;8.894;2022-10-16T04:57:27;2.53;;;1.60;;
17384;SDS011;8810;48.680;8.894;2022-10-16T04:59:56;4.27;;;1.60;;
17384;SDS011;8810;48.680;8.894;2022-10-16T05:02:23;3.67;;;1.60;;
17384;SDS011;8810;48.680;8.894;2022-10-16T05:04:50;2.73;;;1.43;;
17384;SDS011;8810;48.680;8.894;2022-10-16T05:07:17;4.00;;;1.60;;
17384;SDS011;8810;48.680;8.894;2022-10-16T05:09:44;3.70;;;1.80;;
17384;SDS011;8810;48.680;8.894;2022-10-16T05:12:10;3.60;;;1.60;;
17384;SDS011;8810;48.680;8.894;2022-10-16T05:14:37;2.17;;;1.50;;
17384;SDS011;8810;48.680;8.894;2022-10-16T05:17:05;4.33;;;1.50;;
17384;SDS011;8810;48.680;8.894;2022-10-16T05:19:32;2.73;;;1.50;;
17384;SDS011;8810;48.680;8.894;2022-10-16T05:21:59;2.53;;;1.50;;
17384;SDS011;8810;48.680;8.894;2022-10-16T05:24:26;1.57;;;1.40;;
17384;SDS011;8810;48.680;8.894;2022-10-16T05:26:53;2.80;;;1.40;;
17384;SDS011;8810;48.680;8.894;2022-10-16T05:29:20;4.80;;;1.70;;
17384;SDS011;8810;48.680;8.894;2022-10-16T05:31:49;4.00;;;1.53;;
17384;SDS011;8810;48.680;8.894;2022-10-16T05:34:18;6.33;;;1.53;;
17384;SDS011;8810;48.680;8.894;2022-10-16T05:36:45;5.30;;;1.87;;
17384;SDS011;8810;48.680;8.894;2022-10-16T05:39:13;5.67;;;1.60;;
17384;SDS011;8810;48.680;8.894;2022-10-16T05:41:40;7.13;;;2.10;;
17384;SDS011;8810;48.680;8.894;2022-10-16T05:44:07;3.10;;;1.53;;
17384;SDS011;8810;48.680;8.894;2022-10-16T05:46:34;2.70;;;2.00;;
17384;SDS011;8810;48.680;8.894;2022-10-16T05:49:01;6.53;;;1.50;;
17384;SDS011;8810;48.680;8.894;2022-10-16T05:51:29;3.33;;;1.90;;
17384;SDS011;8810;48.680;8.894;2022-10-16T05:53:56;2.87;;;1.50;;
17384;SDS011;8810;48.680;8.894;2022-10-16T05:56:22;3.27;;;1.63;;
17384;SDS011;8810;48.680;8.894;2022-10-16T05:58:49;2.57;;;1.60;;
17384;SDS011;8810;48.680;8.894;2022-10-16T06:01:17;7.13;;;1.50;;
17384;SDS011;8810;48.680;8.894;2022-10-16T06:03:45;2.50;;;1.40;;
17384;SDS011;8810;48.680;8.894;2022-10-16T06:06:13;6.53;;;1.63;;
17384;SDS011;8810;48.680;8.894;2022-10-16T06:08:43;7.63;;;1.50;;
17384;SDS011;8810;48.680;8.894;2022-10-16T06:11:11;3.40;;;1.43;;
17384;SDS011;8810;48.680;8.894;2022-10-16T06:13:40;3.10;;;1.50;;
17384;SDS011;8810;48.680;8.894;2022-10-16T06:16:07;2.93;;;1.40;;
17384;SDS011;8810;48.680;8.894;2022-10-16T06:18:34;4.90;;;1.53;;
17384;SDS011;8810;48.680;8.894;2022-10-16T06:21:06;5.03;;;1.70;;
17384;SDS011;8810;48.680;8.894;2022-10-16T06:23:33;3.23;;;1.77;;
17384;SDS011;8810;48.680;8.894;2022-10-16T06:26:05;6.60;;;2.30;;
17384;SDS011;8810;48.680;8.894;2022-10-16T06:28:33;4.37;;;2.27;;
17384;SDS011;8810;48.680;8.894;2022-10-16T06:31:00;5.00;;;2.60;;
17384;SDS011;8810;48.680;8.894;2022-10-16T06:33:27;6.60;;;2.33;;
17384;SDS011;8810;48.680;8.894;2022-10-16T06:35:59;5.90;;;2.40;;
17384;SDS011;8810;48.680;8.894;2022-10-16T06:38:27;3.43;;;2.40;;
17384;SDS011;8810;48.680;8.894;2022-10-16T06:40:54;4.27;;;2.17;;
17384;SDS011;8810;48.680;8.894;2022-10-16T06:43:22;6.07;;;2.30;;
17384;SDS011;8810;48.680;8.894;2022-10-16T06:45:52;12.03;;;2.40;;
17384;SDS011;8810;48.680;8.894;2022-10-16T06:48:19;4.47;;;1.80;;
17384;SDS011;8810;48.680;8.894;2022-10-16T06:50:54;5.27;;;1.73;;
17384;SDS011;8810;48.680;8.894;2022-10-16T06:53:23;3.77;;;1.50;;
17384;SDS011;8810;48.680;8.894;2022-10-16T06:55:50;2.43;;;1.70;;
17384;SDS011;8810;48.680;8.894;2022-10-16T06:58:17;6.77;;;1.83;;
17384;SDS011;8810;48.680;8.894;2022-10-16T07:00:45;3.00;;;1.70;;
17384;SDS011;8810;48.680;8.894;2022-10-16T07:03:12;2.43;;;1.60;;
17384;SDS011;8810;48.680;8.894;2022-10-16T07:05:39;2.40;;;1.60;;
17384;SDS011;8810;48.680;8.894;2022-10-16T07:08:07;7.67;;;1.73;;
17384;SDS011;8810;48.680;8.894;2022-10-16T07:10:35;6.13;;;1.80;;
17384;SDS011;8810;48.680;8.894;2022-10-16T07:13:02;8.23;;;2.10;;
17384;SDS011;8810;48.680;8.894;2022-10-16T07:15:29;4.47;;;2.03;;
17384;SDS011;8810;48.680;8.894;2022-10-16T07:17:57;4.63;;;2.97;;
17384;SDS011;8810;48.680;8.894;2022-10-16T07:20:24;5.47;;;2.80;;
17384;SDS011;8810;48.680;8.894;2022-10-16T07:22:51;5.23;;;2.80;;
17384;SDS011;8810;48.680;8.894;2022-10-16T07:25:18;5.50;;;2.57;;
17384;SDS011;8810;48.680;8.894;2022-10-16T07:27:45;8.07;;;2.43;;
17384;SDS011;8810;48.680;8.894;2022-10-16T07:30:11;4.90;;;2.53;;
17384;SDS011;8810;48.680;8.894;2022-10-16T07:32:38;4.83;;;2.50;;
17384;SDS011;8810;48.680;8.894;2022-10-16T07:35:07;4.83;;;2.50;;
17384;SDS011;8810;48.680;8.894;2022-10-16T07:37:34;11.23;;;2.60;;
17384;SDS011;8810;48.680;8.894;2022-10-16T07:40:01;5.93;;;2.80;;
17384;SDS011;8810;48.680;8.894;2022-10-16T07:42:28;5.17;;;2.60;;
17384;SDS011;8810;48.680;8.894;2022-10-16T07:44:54;10.77;;;2.90;;
17384;SDS011;8810;48.680;8.894;2022-10-16T07:47:21;4.00;;;2.47;;
17384;SDS011;8810;48.680;8.894;2022-10-16T07:49:48;4.97;;;2.27;;
17384;SDS011;8810;48.680;8.894;2022-10-16T07:52:16;12.83;;;2.47;;
17384;SDS011;8810;48.680;8.894;2022-10-16T07:54:43;7.30;;;2.30;;
17384;SDS011;8810;48.680;8.894;2022-10-16T07:57:10;5.00;;;2.13;;
17384;SDS011;8810;48.680;8.894;2022-10-16T07:59:43;7.87;;;3.20;;
17384;SDS011;8810;48.680;8.894;2022-10-16T08:02:10;10.10;;;3.70;;
17384;SDS011;8810;48.680;8.894;2022-10-16T08:04:37;3.97;;;3.10;;
17384;SDS011;8810;48.680;8.894;2022-10-16T08:07:04;3.53;;;2.83;;
17384;SDS011;8810;48.680;8.894;2022-10-16T08:09:34;5.97;;;2.93;;
17384;SDS011;8810;48.680;8.894;2022-10-16T08:12:00;2.93;;;2.63;;
17384;SDS011;8810;48.680;8.894;2022-10-16T08:14:29;5.10;;;2.70;;
17384;SDS011;8810;48.680;8.894;2022-10-16T08:16:55;5.07;;;3.00;;
17384;SDS011;8810;48.680;8.894;2022-10-16T08:19:22;5.77;;;2.60;;
17384;SDS011;8810;48.680;8.894;2022-10-16T08:21:49;3.00;;;2.60;;
17384;SDS011;8810;48.680;8.894;2022-10-16T08:24:16;8.53;;;2.50;;
17384;SDS011;8810;48.680;8.894;2022-10-16T08:26:44;4.17;;;1.90;;
17384;SDS011;8810;48.680;8.894;2022-10-16T08:29:11;7.07;;;2.50;;
17384;SDS011;8810;48.680;8.894;2022-10-16T08:31:39;8.70;;;3.00;;
17384;SDS011;8810;48.680;8.894;2022-10-16T08:34:06;8.47;;;3.90;;
17384;SDS011;8810;48.680;8.894;2022-10-16T08:36:33;8.40;;;3.00;;
17384;SDS011;8810;48.680;8.894;2022-10-16T08:39:00;4.80;;;2.83;;
17384;SDS011;8810;48.680;8.894;2022-10-16T08:41:34;4.80;;;2.70;;
17384;SDS011;8810;48.680;8.894;2022-10-16T08:44:27;60.77;;;26.87;;
17384;SDS011;8810;48.680;8.894;2022-10-16T08:47:13;25.57;;;13.47;;
17384;SDS011;8810;48.680;8.894;2022-10-16T08:49:50;25.87;;;18.20;;
17384;SDS011;8810;48.680;8.894;2022-10-16T08:52:23;19.00;;;16.23;;
17384;SDS011;8810;48.680;8.894;2022-10-16T08:54:55;5.27;;;2.90;;
17384;SDS011;8810;48.680;8.894;2022-10-16T08:57:24;2.53;;;2.03;;
17384;SDS011;8810;48.680;8.894;2022-10-16T08:59:53;4.00;;;2.10;;
17384;SDS011;8810;48.680;8.894;2022-10-16T09:02:26;3.60;;;1.50;;
17384;SDS011;8810;48.680;8.894;2022-10-16T09:04:59;3.33;;;1.33;;
17384;SDS011;8810;48.680;8.894;2022-10-16T09:07:41;4.63;;;1.52;;
17384;SDS011;8810;48.680;8.894;2022-10-16T09:10:21;3.45;;;1.50;;
17384;SDS011;8810;48.680;8.894;2022-10-16T09:12:58;1.75;;;1.50;;
17384;SDS011;8810;48.680;8.894;2022-10-16T09:15:34;5.15;;;1.50;;
17384;SDS011;8810;48.680;8.894;2022-10-16T09:18:05;1.80;;;1.20;;
17384;SDS011;8810;48.680;8.894;2022-10-16T09:20:38;2.83;;;1.23;;
17384;SDS011;8810;48.680;8.894;2022-10-16T09:23:15;2.42;;;1.20;;
17384;SDS011;8810;48.680;8.894;2022-10-16T09:25:44;1.63;;;1.33;;
17384;SDS011;8810;48.680;8.894;2022-10-16T09:28:13;2.28;;;1.23;;
17384;SDS011;8810;48.680;8.894;2022-10-16T09:30:42;2.00;;;0.90;;
17384;SDS011;8810;48.680;8.894;2022-10-16T09:33:10;3.92;;;1.10;;
17384;SDS011;8810;48.680;8.894;2022-10-16T09:35:39;2.75;;;1.00;;
17384;SDS011;8810;48.680;8.894;2022-10-16T09:38:07;4.13;;;1.17;;
17384;SDS011;8810;48.680;8.894;2022-10-16T09:40:35;1.60;;;1.00;;
17384;SDS011;8810;48.680;8.894;2022-10-16T09:43:10;3.72;;;1.30;;
17384;SDS011;8810;48.680;8.894;2022-10-16T09:45:54;1.70;;;1.08;;
17384;SDS011;8810;48.680;8.894;2022-10-16T09:48:26;3.53;;;1.23;;
17384;SDS011;8810;48.680;8.894;2022-10-16T09:50:57;2.20;;;1.40;;
17384;SDS011;8810;48.680;8.894;2022-10-16T09:53:26;1.90;;;1.20;;
17384;SDS011;8810;48.680;8.894;2022-10-16T09:56:09;2.85;;;1.15;;
17384;SDS011;8810;48.680;8.894;2022-10-16T09:58:41;1.38;;;1.00;;
17384;SDS011;8810;48.680;8.894;2022-10-16T10:01:11;2.00;;;1.00;;
17384;SDS011;8810;48.680;8.894;2022-10-16T10:03:41;4.15;;;1.13;;
17384;SDS011;8810;48.680;8.894;2022-10-16T10:06:16;1.55;;;1.02;;
17384;SDS011;8810;48.680;8.894;2022-10-16T10:08:57;2.83;;;1.00;;
17384;SDS011;8810;48.680;8.894;2022-10-16T10:14:22;3.28;;;0.93;;
17384;SDS011;8810;48.680;8.894;2022-10-16T10:17:01;10.77;;;1.20;;
17384;SDS011;8810;48.680;8.894;2022-10-16T10:19:37;3.83;;;1.00;;
17384;SDS011;8810;48.680;8.894;2022-10-16T10:22:13;2.90;;;1.30;;
17384;SDS011;8810;48.680;8.894;2022-10-16T10:24:45;1.73;;;1.00;;
17384;SDS011;8810;48.680;8.894;2022-10-16T10:27:21;5.90;;;1.00;;
17384;SDS011;8810;48.680;8.894;2022-10-16T10:29:54;1.55;;;0.95;;
17384;SDS011;8810;48.680;8.894;2022-10-16T10:32:29;5.32;;;1.10;;
17384;SDS011;8810;48.680;8.894;2022-10-16T10:35:06;1.67;;;1.10;;
17384;SDS011;8810;48.680;8.894;2022-10-16T10:37:47;2.47;;;1.27;;
17384;SDS011;8810;48.680;8.894;2022-10-16T10:40:30;2.97;;;1.30;;
17384;SDS011;8810;48.680;8.894;2022-10-16T10:43:06;3.58;;;0.88;;
17384;SDS011;8810;48.680;8.894;2022-10-16T10:45:42;2.25;;;1.00;;
17384;SDS011;8810;48.680;8.894;2022-10-16T10:48:26;7.53;;;0.77;;
17384;SDS011;8810;48.680;8.894;2022-10-16T10:51:13;1.23;;;1.00;;
17384;SDS011;8810;48.680;8.894;2022-10-16T10:53:47;5.13;;;1.17;;
17384;SDS011;8810;48.680;8.894;2022-10-16T10:56:24;3.70;;;0.90;;
17384;SDS011;8810;48.680;8.894;2022-10-16T10:59:30;3.88;;;1.05;;
17384;SDS011;8810;48.680;8.894;2022-10-16T11:02:09;1.92;;;1.10;;
17384;SDS011;8810;48.680;8.894;2022-10-16T11:04:47;3.88;;;0.98;;
17384;SDS011;8810;48.680;8.894;2022-10-16T11:07:25;1.10;;;1.00;;
17384;SDS011;8810;48.680;8.894;2022-10-16T11:09:56;4.47;;;1.15;;
17384;SDS011;8810;48.680;8.894;2022-10-16T11:12:25;2.40;;;0.88;;
17384;SDS011;8810;48.680;8.894;2022-10-16T11:14:56;5.93;;;1.10;;
17384;SDS011;8810;48.680;8.894;2022-10-16T11:17:28;2.67;;;1.10;;
17384;SDS011;8810;48.680;8.894;2022-10-16T11:20:00;3.10;;;1.05;;
17384;SDS011;8810;48.680;8.894;2022-10-16T11:22:37;4.13;;;1.10;;
17384;SDS011;8810;48.680;8.894;2022-10-16T11:25:12;4.50;;;1.00;;
17384;SDS011;8810;48.680;8.894;2022-10-16T11:27:43;1.23;;;0.90;;
17384;SDS011;8810;48.680;8.894;2022-10-16T11:30:14;2.22;;;1.08;;
17384;SDS011;8810;48.680;8.894;2022-10-16T11:32:51;7.40;;;0.93;;
17384;SDS011;8810;48.680;8.894;2022-10-16T11:35:28;1.95;;;0.88;;
17384;SDS011;8810;48.680;8.894;2022-10-16T11:38:07;3.20;;;1.23;;
17384;SDS011;8810;48.680;8.894;2022-10-16T11:40:40;1.15;;;0.85;;
17384;SDS011;8810;48.680;8.894;2022-10-16T11:43:10;3.08;;;0.90;;
17384;SDS011;8810;48.680;8.894;2022-10-16T11:45:42;8.38;;;0.95;;
17384;SDS011;8810;48.680;8.894;2022-10-16T11:48:15;1.98;;;1.05;;
17384;SDS011;8810;48.680;8.894;2022-10-16T11:50:52;4.18;;;1.13;;
17384;SDS011;8810;48.680;8.894;2022-10-16T11:53:23;2.55;;;0.75;;
17384;SDS011;8810;48.680;8.894;2022-10-16T11:55:57;1.35;;;0.90;;
17384;SDS011;8810;48.680;8.894;2022-10-16T11:58:25;4.03;;;0.98;;
17384;SDS011;8810;48.680;8.894;2022-10-16T12:00:58;4.45;;;1.20;;
17384;SDS011;8810;48.680;8.894;2022-10-16T12:03:33;3.05;;;0.80;;
17384;SDS011;8810;48.680;8.894;2022-10-16T12:06:13;2.83;;;0.93;;
17384;SDS011;8810;48.680;8.894;2022-10-16T12:08:49;1.58;;;1.05;;
17384;SDS011;8810;48.680;8.894;2022-10-16T12:11:22;3.28;;;1.10;;
17384;SDS011;8810;48.680;8.894;2022-10-16T12:14:03;2.63;;;0.98;;
17384;SDS011;8810;48.680;8.894;2022-10-16T12:16:51;2.22;;;0.90;;
17384;SDS011;8810;48.680;8.894;2022-10-16T12:19:19;3.08;;;1.17;;
17384;SDS011;8810;48.680;8.894;2022-10-16T12:21:48;4.32;;;1.20;;
17384;SDS011;8810;48.680;8.894;2022-10-16T12:24:30;3.42;;;1.15;;
17384;SDS011;8810;48.680;8.894;2022-10-16T12:26:59;2.90;;;1.48;;
17384;SDS011;8810;48.680;8.894;2022-10-16T12:29:30;2.03;;;1.38;;
17384;SDS011;8810;48.680;8.894;2022-10-16T12:31:59;4.13;;;1.33;;
17384;SDS011;8810;48.680;8.894;2022-10-16T12:34:29;2.70;;;0.95;;
17384;SDS011;8810;48.680;8.894;2022-10-16T12:37:09;1.95;;;1.10;;
17384;SDS011;8810;48.680;8.894;2022-10-16T12:39:39;3.25;;;1.60;;
17384;SDS011;8810;48.680;8.894;2022-10-16T12:42:18;2.83;;;1.08;;
17384;SDS011;8810;48.680;8.894;2022-10-16T12:44:48;1.10;;;1.00;;
17384;SDS011;8810;48.680;8.894;2022-10-16T12:47:21;5.53;;;1.40;;
17384;SDS011;8810;48.680;8.894;2022-10-16T12:49:51;1.73;;;1.30;;
17384;SDS011;8810;48.680;8.894;2022-10-16T12:52:28;6.18;;;3.35;;
17384;SDS011;8810;48.680;8.894;2022-10-16T12:55:02;2.00;;;1.48;;
17384;SDS011;8810;48.680;8.894;2022-10-16T12:57:34;1.40;;;1.30;;
17384;SDS011;8810;48.680;8.894;2022-10-16T13:00:12;1.67;;;1.40;;
17384;SDS011;8810;48.680;8.894;2022-10-16T13:05:54;4.72;;;2.25;;
17384;SDS011;8810;48.680;8.894;2022-10-16T13:08:35;2.78;;;1.67;;
17384;SDS011;8810;48.680;8.894;2022-10-16T13:11:15;4.80;;;1.50;;
17384;SDS011;8810;48.680;8.894;2022-10-16T13:13:56;2.10;;;1.30;;
17384;SDS011;8810;48.680;8.894;2022-10-16T13:16:44;2.85;;;1.70;;
17384;SDS011;8810;48.680;8.894;2022-10-16T13:19:18;3.55;;;1.75;;
17384;SDS011;8810;48.680;8.894;2022-10-16T13:21:55;4.13;;;1.95;;
17384;SDS011;8810;48.680;8.894;2022-10-16T13:24:34;3.72;;;1.50;;
17384;SDS011;8810;48.680;8.894;2022-10-16T13:27:12;2.47;;;1.27;;
17384;SDS011;8810;48.680;8.894;2022-10-16T13:29:48;7.43;;;1.17;;
17384;SDS011;8810;48.680;8.894;2022-10-16T13:32:21;5.03;;;2.95;;
17384;SDS011;8810;48.680;8.894;2022-10-16T13:34:48;2.08;;;1.65;;
17384;SDS011;8810;48.680;8.894;2022-10-16T13:37:19;1.83;;;1.27;;
17384;SDS011;8810;48.680;8.894;2022-10-16T13:39:48;2.17;;;1.40;;
17384;SDS011;8810;48.680;8.894;2022-10-16T13:42:18;3.42;;;1.08;;
17384;SDS011;8810;48.680;8.894;2022-10-16T13:44:49;4.03;;;1.40;;
17384;SDS011;8810;48.680;8.894;2022-10-16T13:47:18;1.63;;;1.15;;
17384;SDS011;8810;48.680;8.894;2022-10-16T13:49:46;3.22;;;1.10;;
17384;SDS011;8810;48.680;8.894;2022-10-16T13:52:24;1.85;;;1.55;;
17384;SDS011;8810;48.680;8.894;2022-10-16T13:54:52;3.30;;;1.70;;
17384;SDS011;8810;48.680;8.894;2022-10-16T13:57:21;3.90;;;1.80;;
17384;SDS011;8810;48.680;8.894;2022-10-16T13:59:49;4.30;;;1.70;;
17384;SDS011;8810;48.680;8.894;2022-10-16T14:02:18;3.75;;;1.33;;
17384;SDS011;8810;48.680;8.894;2022-10-16T14:04:48;2.15;;;1.10;;
17384;SDS011;8810;48.680;8.894;2022-10-16T14:07:18;4.38;;;1.27;;
17384;SDS011;8810;48.680;8.894;2022-10-16T14:09:49;4.60;;;1.38;;
17384;SDS011;8810;48.680;8.894;2022-10-16T14:12:18;3.22;;;1.38;;
17384;SDS011;8810;48.680;8.894;2022-10-16T14:14:46;3.75;;;1.48;;
17384;SDS011;8810;48.680;8.894;2022-10-16T14:17:15;4.63;;;2.58;;
17384;SDS011;8810;48.680;8.894;2022-10-16T14:19:45;8.65;;;4.75;;
17384;SDS011;8810;48.680;8.894;2022-10-16T14:22:21;3.45;;;1.92;;
17384;SDS011;8810;48.680;8.894;2022-10-16T14:24:54;2.22;;;1.20;;
17384;SDS011;8810;48.680;8.894;2022-10-16T14:27:26;3.22;;;2.40;;
17384;SDS011;8810;48.680;8.894;2022-10-16T14:30:11;6.25;;;1.52;;
17384;SDS011;8810;48.680;8.894;2022-10-16T14:32:40;11.05;;;5.03;;
17384;SDS011;8810;48.680;8.894;2022-10-16T14:35:21;7.45;;;2.70;;
17384;SDS011;8810;48.680;8.894;2022-10-16T14:37:51;2.50;;;1.52;;
17384;SDS011;8810;48.680;8.894;2022-10-16T14:40:18;3.17;;;1.52;;
17384;SDS011;8810;48.680;8.894;2022-10-16T14:42:48;3.33;;;1.95;;
17384;SDS011;8810;48.680;8.894;2022-10-16T14:45:15;2.72;;;1.70;;
17384;SDS011;8810;48.680;8.894;2022-10-16T14:47:47;1.77;;;1.27;;
17384;SDS011;8810;48.680;8.894;2022-10-16T14:50:16;5.75;;;2.78;;
17384;SDS011;8810;48.680;8.894;2022-10-16T14:52:43;2.70;;;1.85;;
17384;SDS011;8810;48.680;8.894;2022-10-16T14:55:10;3.63;;;1.30;;
17384;SDS011;8810;48.680;8.894;2022-10-16T14:57:37;9.45;;;4.00;;
17384;SDS011;8810;48.680;8.894;2022-10-16T15:00:09;9.13;;;3.72;;
17384;SDS011;8810;48.680;8.894;2022-10-16T15:02:42;4.07;;;1.70;;
17384;SDS011;8810;48.680;8.894;2022-10-16T15:05:11;1.77;;;1.63;;
17384;SDS011;8810;48.680;8.894;2022-10-16T15:07:39;1.45;;;1.30;;
17384;SDS011;8810;48.680;8.894;2022-10-16T15:10:06;1.38;;;1.23;;
17384;SDS011;8810;48.680;8.894;2022-10-16T15:12:34;20.17;;;10.68;;
17384;SDS011;8810;48.680;8.894;2022-10-16T15:15:01;15.52;;;7.70;;
17384;SDS011;8810;48.680;8.894;2022-10-16T15:17:29;5.32;;;2.42;;
17384;SDS011;8810;48.680;8.894;2022-10-16T15:19:55;3.22;;;1.70;;
17384;SDS011;8810;48.680;8.894;2022-10-16T15:22:24;5.07;;;1.58;;
17384;SDS011;8810;48.680;8.894;2022-10-16T15:24:50;6.90;;;2.78;;
17384;SDS011;8810;48.680;8.894;2022-10-16T15:27:17;16.40;;;6.95;;